Flight Track Log - Related Links

Times and Time Zones

All times are in EDT time to prevent confusion due to time zone crossing. See the EJA922 flight status page for this flight to view local times or setup timezone preferences in your user account.

Time Position Orientation Groundspeed Altitude Reporting Facility
EDT Latitude Longitude Course Direction KTS MPH feet Rate Location/Type
Thu 01:22:37 AM 37.3939 -121.9656 14° North 200 230 2,300  Level Oakland Center
Thu 01:23:38 AM 37.4344 -121.9528 14° North 223 257 4,900 1,289 Climbing Oakland Center
Thu 01:24:38 AM 37.3969 -121.8922 128° Southeast 225 259 4,900 1,488 Level Oakland Center
Thu 01:25:39 AM 37.3506 -121.8314 134° Southeast 237 273 7,900 2,910 Climbing Oakland Center
Thu 01:26:52 AM 37.2944 -121.8639 205° Southwest 273 314 11,400 2,866 Climbing Oakland Center
Thu 01:27:53 AM 37.3700 -121.9400 321° Northwest 336 387 14,300 2,262 Climbing Oakland Center
Thu 01:28:54 AM 37.4717 -121.9519 355° North 367 422 16,000 1,525 Climbing Oakland Center
Thu 01:29:55 AM 37.5728 -121.8989 23° Northeast 395 455 17,400 1,426 Climbing Oakland Center
Thu 01:30:56 AM 37.6669 -121.8192 34° Northeast 409 471 18,900 1,488 Climbing Oakland Center
Thu 01:31:56 AM 37.7853 -121.7214 33° Northeast 427 491 20,400 1,488 Climbing Oakland Center
Thu 01:32:57 AM 37.8867 -121.6386 33° Northeast 436 502 21,900 1,377 Climbing Oakland Center
Thu 01:33:58 AM 37.9883 -121.5511 34° Northeast 441 507 23,200 1,279 Climbing Oakland Center
Thu 01:34:59 AM 38.0756 -121.4481 43° Northeast 443 510 24,500 1,279 Climbing Oakland Center
Thu 01:36:00 AM 38.1014 -121.2925 78° East 452 520 25,800 1,230 Climbing Oakland Center
Thu 01:37:01 AM 38.1358 -121.1364 74° East 459 528 27,000 1,140 Climbing Oakland Center
Thu 01:38:01 AM 38.1717 -120.9758 74° East 471 542 28,100 1,190 Climbing Oakland Center
Thu 01:39:02 AM 38.2078 -120.8119 74° East 483 556 29,400 1,180 Climbing Oakland Center
Thu 01:40:03 AM 38.2439 -120.6461 74° East 489 563 30,500 1,328 Climbing Oakland Center
Thu 01:41:04 AM 38.2886 -120.4442 74° East 495 570 32,100 1,488 Climbing Oakland Center
Thu 01:42:04 AM 38.3261 -120.2739 74° East 500 575 33,500 1,488 Climbing Oakland Center
Thu 01:43:05 AM 38.3631 -120.1008 75° East 505 581 35,100 1,721 Climbing Oakland Center
Thu 01:44:06 AM 38.3994 -119.9294 75° East 504 580 37,000 1,918 Climbing Oakland Center
Thu 01:45:07 AM 38.4342 -119.7586 75° East 496 571 39,000 1,785 Climbing Oakland Center
Thu 01:46:07 AM 38.4697 -119.5911 75° East 492 566 40,600 992 Climbing Oakland Center
Thu 01:47:08 AM 38.5056 -119.4225 75° East 494 568 41,000 197 Climbing Oakland Center
Thu 01:48:09 AM 38.5417 -119.2450 75° East 511 588 41,000  Level Oakland Center
Thu 01:49:10 AM 38.5803 -119.0575 75° East 542 624 41,000  Level Oakland Center
Thu 01:50:10 AM 38.6183 -118.8694 75° East 548 631 41,000  Level Oakland Center
Thu 01:51:11 AM 38.6569 -118.6808 75° East 551 634 41,000  Level Oakland Center
Thu 01:52:12 AM 38.6939 -118.4919 76° East 552 635 41,000  Level Oakland Center
Thu 01:53:12 AM 38.7319 -118.3039 75° East 551 634 41,000  Level Oakland Center
Thu 01:54:13 AM 38.7692 -118.1142 76° East 553 636 41,000  Level Oakland Center
Thu 01:55:14 AM 38.8125 -117.8861 76° East 552 635 41,000  Level Oakland Center
Thu 01:56:14 AM 38.8461 -117.7108 76° East 556 640 41,000  Level Oakland Center
Thu 01:56:49 AM 38.8681 -117.5958 76° East 555 639 41,000  Level Salt Lake Center
Thu 01:57:50 AM 38.9042 -117.4019 76° East 556 640 41,000  Level Salt Lake Center
Thu 01:58:51 AM 38.9397 -117.2081 77° East 556 640 41,000  Level Salt Lake Center
Thu 01:59:52 AM 38.9758 -117.0147 76° East 554 638 41,000  Level Salt Lake Center
Thu 02:00:53 AM 39.0117 -116.8211 77° East 555 639 41,000  Level Salt Lake Center
Thu 02:01:54 AM 39.0461 -116.6269 77° East 556 640 41,000  Level Salt Lake Center
Thu 02:02:54 AM 39.0811 -116.4325 77° East 556 640 41,000  Level Salt Lake Center
Thu 02:03:55 AM 39.1161 -116.2361 77° East 557 641 41,000  Level Salt Lake Center
Thu 02:04:56 AM 39.1547 -116.0189 77° East 558 642 41,000  Level Salt Lake Center
Thu 02:05:57 AM 39.1869 -115.8322 77° East 558 642 41,000  Level Salt Lake Center
Thu 02:06:57 AM 39.2200 -115.6442 77° East 563 648 41,000  Level Salt Lake Center
Thu 02:07:58 AM 39.2578 -115.4244 77° East 564 649 41,000  Level Salt Lake Center
Thu 02:08:59 AM 39.2883 -115.2389 78° East 558 642 41,000  Level Salt Lake Center
Thu 02:10:00 AM 39.3197 -115.0533 78° East 555 639 41,000  Level Salt Lake Center
Thu 02:11:00 AM 39.3539 -114.8364 78° East 554 638 41,000  Level Salt Lake Center
Thu 02:12:01 AM 39.3853 -114.6486 78° East 558 642 41,000  Level Salt Lake Center
Thu 02:13:02 AM 39.4147 -114.4631 78° East 554 638 41,000  Level Salt Lake Center
Thu 02:14:02 AM 39.4531 -114.2336 78° East 568 654 41,000  Level Salt Lake Center
Thu 02:15:03 AM 39.4831 -114.0367 79° East 559 643 41,000  Level Salt Lake Center
Thu 02:16:04 AM 39.5156 -113.8386 78° East 561 646 41,000  Level Salt Lake Center
Thu 02:17:04 AM 39.5447 -113.6386 79° East 564 649 41,000  Level Salt Lake Center
Thu 02:18:05 AM 39.5753 -113.4383 79° East 565 650 41,000  Level Salt Lake Center
Thu 02:19:06 AM 39.6050 -113.2397 79° East 563 648 41,000  Level Salt Lake Center
Thu 02:20:06 AM 39.6344 -113.0397 79° East 564 649 41,000  Level Salt Lake Center
Thu 02:21:07 AM 39.6633 -112.8400 79° East 563 648 41,000  Level Salt Lake Center
Thu 02:22:08 AM 39.6919 -112.6411 79° East 562 647 41,000  Level Salt Lake Center
Thu 02:23:08 AM 39.7225 -112.4283 79° East 560 644 41,000  Level Salt Lake Center
Thu 02:24:09 AM 39.7492 -112.2317 80° East 557 641 41,000  Level Salt Lake Center
Thu 02:25:09 AM 39.7772 -112.0344 79° East 557 641 41,000  Level Salt Lake Center
Thu 02:26:10 AM 39.8042 -111.8344 80° East 564 649 41,000  Level Salt Lake Center
Thu 02:27:11 AM 39.8297 -111.6350 80° East 564 649 41,000  Level Salt Lake Center
Thu 02:28:11 AM 39.8558 -111.4425 80° East 560 644 41,000  Level Salt Lake Center
Thu 02:29:12 AM 39.8825 -111.2517 80° East 561 646 41,000  Level Salt Lake Center
Thu 02:30:12 AM 39.9114 -111.0325 80° East 553 636 41,000  Level Salt Lake Center
Thu 02:31:13 AM 39.9367 -110.8417 80° East 557 641 41,000  Level Salt Lake Center
Thu 02:32:14 AM 39.9594 -110.6533 81° East 551 634 41,000  Level Salt Lake Center
Thu 02:33:14 AM 39.9864 -110.4311 81° East 556 640 41,000  Level Salt Lake Center
Thu 02:34:15 AM 40.0094 -110.2419 81° East 552 635 41,000  Level Salt Lake Center
Thu 02:35:15 AM 40.0322 -110.0553 81° East 547 629 41,000  Level Salt Lake Center
Thu 02:36:16 AM 40.0578 -109.8353 81° East 548 631 41,000  Level Salt Lake Center
Thu 02:37:17 AM 40.0803 -109.6469 81° East 548 631 41,000  Level Salt Lake Center
Thu 02:38:17 AM 40.1017 -109.4567 82° East 551 634 41,000  Level Salt Lake Center
Thu 02:39:04 AM 40.1214 -109.2944 81° East 554 638 41,000  Level Denver Center
Thu 02:40:05 AM 40.1394 -109.1047 83° East 551 634 41,000  Level Denver Center
Thu 02:41:05 AM 40.1281 -108.8803 94° East 550 633 41,000  Level Denver Center
Thu 02:42:06 AM 40.1053 -108.6883 99° East 554 638 41,000  Level Denver Center
Thu 02:43:06 AM 40.0811 -108.4981 99° East 552 635 41,000  Level Denver Center
Thu 02:44:06 AM 40.0583 -108.3078 99° East 551 634 41,000  Level Denver Center
Thu 02:45:19 AM 40.0253 -108.0578 100° East 546 628 41,000  Level Denver Center
Thu 02:46:20 AM 40.0011 -107.8708 100° East 544 626 41,000  Level Denver Center
Thu 02:47:20 AM 39.9733 -107.6539 99° East 543 625 41,000  Level Denver Center
Thu 02:48:21 AM 39.9478 -107.4669 100° East 545 627 41,000  Level Denver Center
Thu 02:49:21 AM 39.9239 -107.2822 100° East 543 625 41,000  Level Denver Center
Thu 02:50:22 AM 39.8994 -107.1028 100° East 545 627 41,000 -1,140 Level Denver Center
Thu 02:51:22 AM 39.8725 -106.9058 100° East 549 632 38,700 -2,600 Descending Denver Center
Thu 02:52:22 AM 39.8472 -106.7100 99° East 544 626 35,800 -3,124 Descending Denver Center
Thu 02:53:23 AM 39.8142 -106.4775 100° East 558 642 32,400 -3,174 Descending Denver Center
Thu 02:54:23 AM 39.7858 -106.2783 100° East 562 647 29,400 -2,380 Descending Denver Center
Thu 02:55:24 AM 39.7569 -106.0817 101° East 556 640 27,600 -1,785 Descending Denver Center
Thu 02:56:24 AM 39.7025 -105.9031 112° Southeast 536 617 25,800 -2,231 Descending Denver Center
Thu 02:57:25 AM 39.6422 -105.7336 115° Southeast 533 613 23,100 -2,826 Descending Denver Center
Thu 02:58:25 AM 39.5872 -105.5769 114° Southeast 479 551 20,100 -2,678 Descending Denver Center
Thu 02:59:26 AM 39.5428 -105.4261 111° Southeast 418 481 17,700 -2,516 Descending Denver Center
Thu 03:00:29 AM 39.5186 -105.3006 104° East 358 412 14,900 -2,683 Descending Denver Center
Thu 03:01:29 AM 39.5025 -105.1881 100° East 318 366 12,200 -2,033 Descending Denver Center
Thu 03:02:30 AM 39.4869 -105.0836 101° East 298 343 10,800 -1,488 Descending Denver Center
Thu 03:03:30 AM 39.4822 -104.9817 93° East 280 322 9,200 -1,537 Descending Denver Center
Thu 03:04:31 AM 39.4808 -104.8928 91° East 236 272 7,700 -1,140 Descending Denver Center
Thu 03:05:31 AM 39.5056 -104.8489 54° Northeast 160 184 6,900 -744 Descending Denver Center
Thu 03:06:32 AM 39.5433 -104.8489 360° North 137 158 6,200 -496 Descending Denver Center
Thu 03:07:44 AM 39.5761 -104.8511 357° North 133 153 5,800 -333 Descending Denver Center
Thu 03:09:00 AM 39.5701 -104.8493 90° East  Level Estimated
Thu 03:16:00 AM 39.5701 -104.8493 90° East  Level Estimated
Thu 03:17:00 AM 39.5701 -104.8493 90° East  Level Estimated

Login

Don't have an account? Register now (free) for customized features, flight alerts, and more!